VYPB weather

Phonngbyin Airport
Phonngbyin, Sagaing Division, Burma

Public forecast

Using degrees Celsius for public forecast. Weather courtesy of forecast.io.

Closest aviation weather report (METAR) to Phonngbyin Airport

Report is more than 6 hours old.

Closest report is Imphal Airport, 57.3 nm (106.1 km) WNW. Retrieved 2020/03/28 12:00 UTC (8 hours ago):

VEIM 281200Z 18003KT 4000 HZ FEW018 24/11 Q1009 NOSIG

Closest aviation forecast (TAF) to Phonngbyin Airport

Forecast is more than 12 hours old.

Closest forecast is Imphal Airport, 57.3 nm (106.1 km) WNW. Retrieved 2017/12/28 12:00 UTC (2 years ago):

TAF VEIM 281100Z 2812/2821 06006KT 4000 BR FEW020 BECMG 2815/2817 00000KT 2000 BR